Raylah — MFYK2 — position and weather

sailwx.info

Track history (hours):
 
Tides and Currents Weather Stations Pressure Air Temp Water Temp Dewpoint Dewpoint Depression Visibility Wind Speed Wind Dir Waves Ship Positions

Raylah

Last reported at 2015-Aug-28 08:31 UTC. Time now 2015-Sep-02 14:49 UTC.
Position N 37°42' W 000°43'.

Length 13 m.

Type: Pleasure craft. MMSI: 235020483.

Date/timePositionNaut miles runAvg speedWind from/ knotsBaromVisibWave heightAir tempDewpointWater temp
2015-Aug-28 08:31N 37°42' W 000°43'3 2.4
2015-Aug-28 07:18N 37°45' W 000°44'0 0.0
2015-Aug-28 06:33N 37°45' W 000°44'4 4.3
2015-Aug-28 05:33N 37°44' W 000°50'0 0.0
2015-Aug-27 12:33N 37°44' W 000°50'2 0.5
2015-Aug-27 09:04N 37°44' W 000°47'2 4.3
2015-Aug-27 08:30N 37°45' W 000°45'2 1.8
2015-Aug-27 07:33N 37°43' W 000°43'1 0.9
2015-Aug-27 06:33N 37°44' W 000°44'5 5.4
2015-Aug-27 05:33N 37°48' W 000°38'6 6.2
2015-Aug-27 04:33N 37°51' W 000°31'116 5.8
2015-Aug-26 08:28N 38°56' E 001°31'  
Track history (hours):
 
Tides and Currents Weather Stations Pressure Air Temp Water Temp Dewpoint Dewpoint Depression Visibility Wind Speed Wind Dir Waves Ship Positions

Raylah

Last reported at 2015-Aug-28 08:31 UTC. Time now 2015-Sep-02 14:49 UTC.
Position N 37°42' W 000°43'.

Length 13 m.

Type: Pleasure craft. MMSI: 235020483.

Date/timePositionNaut miles runAvg speedWind from/ knotsBaromVisibWave heightAir tempDewpointWater temp
2015-Aug-28 08:31N 37°42' W 000°43'3 2.4
2015-Aug-28 07:18N 37°45' W 000°44'0 0.0
2015-Aug-28 06:33N 37°45' W 000°44'4 4.3
2015-Aug-28 05:33N 37°44' W 000°50'0 0.0
2015-Aug-27 12:33N 37°44' W 000°50'2 0.5
2015-Aug-27 09:04N 37°44' W 000°47'2 4.3
2015-Aug-27 08:30N 37°45' W 000°45'2 1.8
2015-Aug-27 07:33N 37°43' W 000°43'1 0.9
2015-Aug-27 06:33N 37°44' W 000°44'5 5.4
2015-Aug-27 05:33N 37°48' W 000°38'6 6.2
2015-Aug-27 04:33N 37°51' W 000°31'116 5.8
2015-Aug-26 08:28N 38°56' E 001°31'  

Dump ship's entire track history